createdAt,value
2023-01-29T00:01:11.643Z,9.65
2023-01-29T00:03:38.709Z,9.30
2023-01-29T00:06:08.883Z,7.95
2023-01-29T00:08:36.488Z,8.52
2023-01-29T00:11:05.441Z,8.18
2023-01-29T00:13:35.843Z,10.15
2023-01-29T00:16:03.738Z,8.50
2023-01-29T00:18:30.959Z,9.32
2023-01-29T00:20:57.994Z,11.10
2023-01-29T00:23:26.495Z,9.73
2023-01-29T00:25:53.479Z,11.32
2023-01-29T00:28:20.464Z,10.77
2023-01-29T00:30:47.449Z,8.35
2023-01-29T00:33:14.563Z,11.52
2023-01-29T00:35:42.421Z,12.05
2023-01-29T00:38:09.443Z,9.98
2023-01-29T00:40:58.705Z,7.97
2023-01-29T00:43:45.338Z,8.13
2023-01-29T00:46:12.500Z,8.20
2023-01-29T00:48:39.437Z,7.60
2023-01-29T00:51:06.897Z,9.63
2023-01-29T00:53:34.041Z,11.85
2023-01-29T00:56:02.451Z,10.90
2023-01-29T00:58:34.252Z,9.77
2023-01-29T01:01:02.499Z,12.38
2023-01-29T01:03:30.168Z,11.32
2023-01-29T01:06:04.778Z,10.77
2023-01-29T01:08:50.854Z,12.57
2023-01-29T01:11:19.783Z,11.95
2023-01-29T01:13:46.851Z,12.00
2023-01-29T01:16:15.986Z,12.73
2023-01-29T01:18:43.424Z,12.25
2023-01-29T01:21:10.461Z,11.70
2023-01-29T01:23:37.592Z,14.00
2023-01-29T01:26:09.656Z,12.55
2023-01-29T01:28:38.457Z,15.00
2023-01-29T01:31:11.052Z,12.25
2023-01-29T01:33:38.292Z,13.80
2023-01-29T01:36:09.965Z,18.98
2023-01-29T01:38:44.630Z,14.52
2023-01-29T01:41:12.986Z,15.15
2023-01-29T01:43:52.617Z,12.25
2023-01-29T01:46:20.278Z,16.10
2023-01-29T01:48:51.351Z,12.00
2023-01-29T01:51:19.251Z,14.15
2023-01-29T01:53:51.923Z,13.85
2023-01-29T01:56:27.789Z,13.45
2023-01-29T01:58:58.539Z,12.18
2023-01-29T02:01:29.841Z,12.95
2023-01-29T02:04:21.362Z,12.70
2023-01-29T02:07:07.536Z,16.33
2023-01-29T02:09:39.595Z,11.02
2023-01-29T02:12:09.407Z,12.57
2023-01-29T02:14:39.580Z,14.07
2023-01-29T02:17:08.003Z,12.23
2023-01-29T02:19:47.235Z,12.65
2023-01-29T02:22:56.268Z,11.82
2023-01-29T02:26:07.214Z,12.73
2023-01-29T02:28:45.386Z,11.48
2023-01-29T02:31:22.481Z,10.68
2023-01-29T02:34:01.582Z,13.30
2023-01-29T02:36:38.088Z,12.35
2023-01-29T02:39:14.702Z,12.90
2023-01-29T02:41:46.175Z,12.77
2023-01-29T02:44:23.391Z,13.75
2023-01-29T02:47:00.388Z,13.65
2023-01-29T02:49:35.353Z,13.85
2023-01-29T02:52:09.527Z,13.40
2023-01-29T02:54:44.717Z,11.82
2023-01-29T02:59:49.610Z,14.98
2023-01-29T03:02:20.945Z,13.32
2023-01-29T03:04:53.280Z,16.48
2023-01-29T03:07:42.588Z,14.02
2023-01-29T03:10:16.833Z,11.40
2023-01-29T03:12:46.759Z,14.57
2023-01-29T03:15:25.152Z,15.68
2023-01-29T03:18:16.768Z,13.13
2023-01-29T03:20:49.341Z,12.20
2023-01-29T03:23:24.182Z,14.68
2023-01-29T03:26:13.019Z,14.52
2023-01-29T03:29:01.015Z,11.60
2023-01-29T03:31:49.471Z,11.60
2023-01-29T03:34:24.667Z,11.68
2023-01-29T03:36:56.163Z,16.50
2023-01-29T03:39:25.656Z,12.55
2023-01-29T03:42:00.822Z,14.40
2023-01-29T03:44:37.237Z,13.20
2023-01-29T03:49:51.732Z,12.82
2023-01-29T03:52:23.763Z,13.25
2023-01-29T03:55:01.305Z,12.75
2023-01-29T03:57:37.678Z,11.15
2023-01-29T04:00:12.386Z,11.65
2023-01-29T04:03:18.078Z,12.93
2023-01-29T04:05:50.629Z,10.93
2023-01-29T04:08:28.200Z,12.57
2023-01-29T04:10:59.327Z,11.35
2023-01-29T04:13:27.662Z,15.63
2023-01-29T04:15:58.183Z,11.68
2023-01-29T04:18:47.521Z,15.55
2023-01-29T04:21:18.589Z,16.23
2023-01-29T04:23:45.651Z,14.48
2023-01-29T04:26:28.993Z,16.38
2023-01-29T04:29:16.599Z,22.85
2023-01-29T04:31:51.622Z,28.20
2023-01-29T04:34:26.342Z,32.88
2023-01-29T04:37:04.572Z,25.48
2023-01-29T04:39:40.012Z,31.40
2023-01-29T04:44:42.864Z,25.55
2023-01-29T04:47:19.208Z,22.20
2023-01-29T04:49:55.632Z,20.13
2023-01-29T04:52:30.423Z,20.60
2023-01-29T04:55:03.319Z,22.60
2023-01-29T04:57:36.429Z,20.52
2023-01-29T05:00:08.681Z,16.23
2023-01-29T05:02:39.351Z,17.10
2023-01-29T05:05:09.626Z,15.23
2023-01-29T05:07:38.525Z,19.00
2023-01-29T05:10:07.040Z,16.15
2023-01-29T05:12:35.198Z,18.02
2023-01-29T05:15:05.816Z,19.90
2023-01-29T05:17:32.748Z,22.23
2023-01-29T05:19:59.754Z,17.88
2023-01-29T05:22:28.648Z,18.05
2023-01-29T05:24:55.636Z,21.60
2023-01-29T05:27:45.888Z,24.83
2023-01-29T05:30:13.049Z,22.45
2023-01-29T05:32:40.231Z,22.58
2023-01-29T05:35:07.968Z,22.15
2023-01-29T05:37:36.570Z,20.63
2023-01-29T05:40:04.839Z,18.60
2023-01-29T05:42:32.930Z,20.45
2023-01-29T05:44:59.912Z,20.60
2023-01-29T05:47:29.751Z,18.65
2023-01-29T05:49:58.779Z,22.00
2023-01-29T05:52:25.936Z,22.05
2023-01-29T05:54:54.356Z,19.60
2023-01-29T05:57:22.171Z,16.10
2023-01-29T05:59:49.087Z,19.92
2023-01-29T06:02:15.997Z,18.45
2023-01-29T06:04:42.893Z,17.20
2023-01-29T06:07:09.834Z,15.13
2023-01-29T06:09:36.763Z,21.50
2023-01-29T06:12:06.331Z,15.55
2023-01-29T06:14:33.274Z,14.20
2023-01-29T06:17:00.401Z,16.70
2023-01-29T06:19:27.314Z,20.42
2023-01-29T06:21:54.265Z,14.00
2023-01-29T06:24:21.301Z,17.38
2023-01-29T06:26:48.403Z,17.00
2023-01-29T06:29:16.688Z,20.83
2023-01-29T06:31:43.681Z,18.13
2023-01-29T06:34:10.643Z,212.52
2023-01-29T06:36:37.658Z,111.78
2023-01-29T06:39:04.836Z,64.57
2023-01-29T06:41:31.975Z,86.03
2023-01-29T06:43:58.918Z,89.28
2023-01-29T06:46:27.232Z,47.13
2023-01-29T06:48:54.208Z,34.95
2023-01-29T06:51:22.999Z,33.00
2023-01-29T06:53:49.974Z,51.72
2023-01-29T06:56:16.988Z,69.68
2023-01-29T06:58:43.894Z,52.85
2023-01-29T07:01:17.509Z,50.97
2023-01-29T07:03:53.707Z,38.15
2023-01-29T07:06:20.861Z,34.42
2023-01-29T07:08:47.826Z,40.80
2023-01-29T07:11:14.769Z,32.63
2023-01-29T07:13:41.789Z,29.02
2023-01-29T07:16:09.875Z,29.50
2023-01-29T07:18:37.478Z,28.70
2023-01-29T07:21:07.199Z,31.48
2023-01-29T07:23:35.008Z,168.15
2023-01-29T07:26:03.192Z,39.28
2023-01-29T07:28:30.254Z,33.97
2023-01-29T07:30:58.105Z,64.55
2023-01-29T07:33:25.577Z,55.55
2023-01-29T07:35:52.851Z,113.95
2023-01-29T07:38:21.330Z,55.80
2023-01-29T07:40:49.047Z,51.03
2023-01-29T07:43:16.908Z,40.25
2023-01-29T07:45:46.990Z,43.50
2023-01-29T07:48:14.186Z,32.35
2023-01-29T07:50:44.382Z,42.80
2023-01-29T07:53:14.664Z,42.85
2023-01-29T07:55:44.100Z,26.33
2023-01-29T07:58:14.073Z,24.45
2023-01-29T08:00:40.986Z,26.25
2023-01-29T08:03:11.707Z,23.58
2023-01-29T08:05:38.624Z,25.30
2023-01-29T08:08:07.629Z,23.85
2023-01-29T08:10:35.236Z,22.83
2023-01-29T08:13:04.868Z,24.92
2023-01-29T08:15:32.851Z,23.15
2023-01-29T08:18:01.343Z,23.45
2023-01-29T08:20:28.869Z,23.35
2023-01-29T08:22:59.975Z,26.40
2023-01-29T08:25:27.666Z,22.52
2023-01-29T08:27:55.946Z,20.48
2023-01-29T08:30:25.208Z,22.42
2023-01-29T08:32:52.138Z,20.45
2023-01-29T08:35:19.328Z,20.75
2023-01-29T08:37:53.310Z,18.33
2023-01-29T08:40:20.554Z,20.27
2023-01-29T08:42:47.740Z,20.13
2023-01-29T08:45:14.737Z,20.90
2023-01-29T08:47:47.370Z,23.17
2023-01-29T08:50:15.323Z,20.35
2023-01-29T08:52:42.624Z,24.85
2023-01-29T08:55:10.274Z,22.65
2023-01-29T08:57:37.859Z,17.77
2023-01-29T09:00:06.202Z,18.65
2023-01-29T09:02:33.274Z,19.58
2023-01-29T09:05:01.703Z,19.30
2023-01-29T09:07:29.700Z,20.48
2023-01-29T09:09:56.696Z,19.70
2023-01-29T09:12:23.809Z,20.30
2023-01-29T09:14:50.759Z,18.30
2023-01-29T09:17:17.681Z,19.45
2023-01-29T09:19:44.662Z,14.82
2023-01-29T09:22:13.027Z,13.88
2023-01-29T09:24:39.934Z,14.48
2023-01-29T09:27:07.003Z,13.10
2023-01-29T09:29:35.863Z,19.08
2023-01-29T09:32:04.386Z,17.15
2023-01-29T09:34:31.301Z,21.27
2023-01-29T09:36:58.747Z,18.58
2023-01-29T09:39:27.091Z,21.88
2023-01-29T09:42:00.629Z,29.17
2023-01-29T09:44:39.564Z,65.13
2023-01-29T09:47:13.593Z,23.08
2023-01-29T09:49:43.570Z,19.83
2023-01-29T09:52:17.396Z,17.90
2023-01-29T09:54:52.441Z,17.42
2023-01-29T09:57:23.915Z,18.35
2023-01-29T09:59:50.985Z,18.95
2023-01-29T10:02:38.841Z,20.45
2023-01-29T10:05:22.771Z,17.02
2023-01-29T10:08:22.012Z,17.85
2023-01-29T10:10:52.306Z,16.65
2023-01-29T10:13:29.588Z,15.70
2023-01-29T10:16:21.421Z,19.40
2023-01-29T10:19:01.159Z,18.60
2023-01-29T10:21:52.664Z,17.48
2023-01-29T10:24:31.118Z,17.88
2023-01-29T10:27:00.894Z,19.02
2023-01-29T10:29:30.016Z,16.08
2023-01-29T10:32:04.821Z,17.83
2023-01-29T10:34:35.605Z,21.33
2023-01-29T10:37:14.563Z,20.65
2023-01-29T10:39:41.586Z,19.15
2023-01-29T10:42:20.058Z,18.92
2023-01-29T10:44:59.889Z,16.80
2023-01-29T10:47:52.866Z,21.58
2023-01-29T10:50:33.392Z,53.72
2023-01-29T10:53:20.119Z,21.08
2023-01-29T10:55:57.775Z,19.30
2023-01-29T10:58:32.529Z,26.45
2023-01-29T11:00:59.528Z,18.13
2023-01-29T11:03:29.151Z,26.38
2023-01-29T11:06:05.579Z,18.30
2023-01-29T11:11:09.257Z,17.90
2023-01-29T11:13:43.009Z,18.60
2023-01-29T11:16:10.183Z,22.63
2023-01-29T11:18:57.920Z,21.13
2023-01-29T11:21:26.487Z,20.40
2023-01-29T11:24:07.399Z,25.38
2023-01-29T11:26:37.758Z,15.10
2023-01-29T11:29:26.289Z,14.90
2023-01-29T11:31:53.764Z,16.55
2023-01-29T11:34:22.715Z,14.65
2023-01-29T11:36:57.359Z,16.48
2023-01-29T11:39:25.957Z,12.52
2023-01-29T11:41:56.780Z,18.00
2023-01-29T11:44:37.092Z,20.63
2023-01-29T11:47:19.191Z,18.70
2023-01-29T11:49:48.203Z,39.53
2023-01-29T11:52:18.896Z,21.98
2023-01-29T11:54:49.930Z,19.80
2023-01-29T11:57:27.274Z,23.77
2023-01-29T11:59:59.599Z,19.88
2023-01-29T12:02:34.237Z,13.57
2023-01-29T12:05:05.842Z,18.83
2023-01-29T12:07:34.085Z,22.17
2023-01-29T12:10:01.246Z,21.15
2023-01-29T12:12:41.759Z,18.48
2023-01-29T12:15:27.767Z,17.42
2023-01-29T12:18:04.000Z,13.48
2023-01-29T12:20:38.740Z,12.20
2023-01-29T12:23:20.142Z,10.80
2023-01-29T12:25:55.180Z,10.98
2023-01-29T12:28:31.871Z,30.40
2023-01-29T12:31:12.657Z,30.13
2023-01-29T12:33:46.587Z,14.63
2023-01-29T12:36:21.211Z,11.82
2023-01-29T12:38:48.186Z,10.18
2023-01-29T12:41:28.505Z,11.88
2023-01-29T12:43:57.866Z,13.50
2023-01-29T12:46:29.362Z,12.85
2023-01-29T12:49:02.222Z,11.38
2023-01-29T12:51:36.036Z,9.55
2023-01-29T12:54:07.004Z,9.13
2023-01-29T12:56:38.242Z,15.75
2023-01-29T12:59:16.922Z,12.85
2023-01-29T13:01:50.210Z,8.50
2023-01-29T13:04:25.216Z,16.02
2023-01-29T13:06:59.221Z,22.25
2023-01-29T13:09:28.807Z,10.00
2023-01-29T13:11:59.306Z,13.30
2023-01-29T13:14:33.122Z,9.57
2023-01-29T13:17:09.898Z,9.52
2023-01-29T13:19:40.162Z,14.93
2023-01-29T13:22:16.124Z,14.32
2023-01-29T13:24:47.879Z,14.55
2023-01-29T13:27:23.724Z,12.48
2023-01-29T13:29:51.507Z,13.43
2023-01-29T13:32:29.339Z,74.03
2023-01-29T13:34:59.279Z,103.07
2023-01-29T13:37:31.983Z,15.10
2023-01-29T13:40:01.049Z,12.82
2023-01-29T13:42:38.936Z,13.23
2023-01-29T13:45:08.166Z,12.20
2023-01-29T13:47:39.522Z,9.57
2023-01-29T13:50:10.565Z,21.67
2023-01-29T13:52:42.972Z,28.02
2023-01-29T13:55:26.115Z,15.73
2023-01-29T13:57:56.157Z,18.63
2023-01-29T14:00:57.172Z,15.80
2023-01-29T14:04:03.224Z,14.52
2023-01-29T14:06:43.829Z,10.63
2023-01-29T14:09:47.247Z,10.70
2023-01-29T14:12:42.810Z,10.23
2023-01-29T14:15:32.119Z,10.60
2023-01-29T14:18:21.145Z,10.93
2023-01-29T14:20:57.053Z,8.82
2023-01-29T14:23:41.783Z,11.68
2023-01-29T14:26:29.372Z,10.77
2023-01-29T14:29:03.546Z,9.35
2023-01-29T14:31:37.395Z,13.13
2023-01-29T14:34:08.419Z,9.82
2023-01-29T14:36:41.933Z,8.60
2023-01-29T14:39:21.508Z,10.77
2023-01-29T14:41:50.778Z,12.35
2023-01-29T14:45:08.315Z,11.52
2023-01-29T14:47:55.479Z,11.75
2023-01-29T14:50:54.980Z,11.98
2023-01-29T14:53:31.743Z,13.43
2023-01-29T14:56:04.374Z,13.30
2023-01-29T14:58:38.402Z,12.63
2023-01-29T15:01:15.729Z,12.48
2023-01-29T15:03:46.156Z,12.70
2023-01-29T15:06:19.146Z,12.05
2023-01-29T15:08:53.516Z,13.43
2023-01-29T15:11:36.537Z,11.77
2023-01-29T15:14:14.389Z,14.07
2023-01-29T15:16:52.129Z,12.48
2023-01-29T15:19:25.039Z,13.13
2023-01-29T15:22:11.166Z,11.10
2023-01-29T15:24:41.325Z,13.13
2023-01-29T15:27:14.747Z,11.40
2023-01-29T15:29:43.427Z,12.80
2023-01-29T15:32:17.161Z,12.23
2023-01-29T15:34:44.497Z,12.15
2023-01-29T15:37:25.782Z,12.60
2023-01-29T15:39:54.234Z,15.02
2023-01-29T15:42:25.839Z,13.23
2023-01-29T15:44:56.788Z,15.43
2023-01-29T15:47:28.566Z,12.35
2023-01-29T15:49:57.370Z,13.57
2023-01-29T15:52:28.158Z,14.13
2023-01-29T15:55:01.484Z,13.13
2023-01-29T15:57:35.360Z,13.48
2023-01-29T16:00:04.561Z,15.32
2023-01-29T16:05:10.703Z,14.85
2023-01-29T16:07:38.134Z,14.32
2023-01-29T16:10:07.907Z,133.10
2023-01-29T16:12:35.531Z,177.38
2023-01-29T16:15:05.287Z,88.32
2023-01-29T16:17:36.345Z,49.22
2023-01-29T16:20:06.097Z,24.92
2023-01-29T16:22:34.535Z,14.63
2023-01-29T16:25:07.859Z,15.63
2023-01-29T16:27:35.339Z,16.38
2023-01-29T16:30:04.051Z,14.18
2023-01-29T16:32:31.460Z,12.23
2023-01-29T16:35:00.045Z,13.18
2023-01-29T16:37:30.357Z,13.77
2023-01-29T16:39:59.793Z,14.15
2023-01-29T16:42:29.695Z,16.20
2023-01-29T16:44:59.237Z,13.93
2023-01-29T16:47:34.554Z,15.07
2023-01-29T16:52:33.863Z,13.13
2023-01-29T16:55:15.988Z,15.55
2023-01-29T16:57:49.947Z,18.23
2023-01-29T17:00:22.134Z,21.83
2023-01-29T17:02:51.866Z,19.63
2023-01-29T17:05:22.928Z,19.90
2023-01-29T17:07:50.457Z,23.15
2023-01-29T17:10:19.725Z,26.20
2023-01-29T17:12:56.067Z,29.05
2023-01-29T17:15:43.301Z,23.35
2023-01-29T17:18:16.027Z,23.42
2023-01-29T17:20:42.923Z,31.77
2023-01-29T17:23:09.910Z,25.05
2023-01-29T17:25:37.017Z,31.55
2023-01-29T17:28:05.947Z,22.88
2023-01-29T17:30:37.144Z,18.38
2023-01-29T17:33:12.681Z,17.95
2023-01-29T17:35:39.835Z,15.65
2023-01-29T17:38:24.140Z,17.38
2023-01-29T17:40:56.010Z,24.00
2023-01-29T17:43:24.327Z,31.42
2023-01-29T17:45:51.344Z,52.85
2023-01-29T17:48:23.004Z,79.75
2023-01-29T17:50:53.410Z,80.60
2023-01-29T17:53:21.794Z,63.15
2023-01-29T17:55:49.024Z,31.70
2023-01-29T17:58:18.330Z,34.45
2023-01-29T18:00:47.101Z,33.47
2023-01-29T18:03:15.448Z,34.25
2023-01-29T18:05:43.698Z,30.42
2023-01-29T18:08:16.818Z,27.02
2023-01-29T18:10:44.178Z,26.30
2023-01-29T18:13:11.283Z,25.30
2023-01-29T18:15:38.551Z,30.95
2023-01-29T18:18:10.326Z,38.05
2023-01-29T18:20:38.512Z,47.70
2023-01-29T18:23:06.674Z,32.83
2023-01-29T18:25:34.219Z,33.75
2023-01-29T18:28:01.373Z,37.47
2023-01-29T18:30:28.783Z,40.25
2023-01-29T18:32:55.796Z,43.95
2023-01-29T18:35:25.072Z,39.20
2023-01-29T18:37:52.128Z,41.22
2023-01-29T18:40:19.570Z,35.33
2023-01-29T18:42:46.917Z,49.22
2023-01-29T18:45:15.773Z,47.75
2023-01-29T18:47:43.137Z,43.28
2023-01-29T18:50:11.729Z,68.85
2023-01-29T18:52:40.877Z,42.72
2023-01-29T18:55:09.872Z,44.75
2023-01-29T18:58:29.544Z,59.65
2023-01-29T19:00:26.194Z,46.97
2023-01-29T19:02:53.264Z,46.85
2023-01-29T19:05:22.926Z,51.70
2023-01-29T19:07:52.352Z,41.05
2023-01-29T19:10:19.466Z,53.63
2023-01-29T19:12:46.546Z,44.95
2023-01-29T19:15:13.531Z,44.38
2023-01-29T19:17:40.492Z,52.90
2023-01-29T19:20:09.656Z,50.38
2023-01-29T19:22:36.740Z,47.33
2023-01-29T19:25:06.234Z,48.40
2023-01-29T19:27:33.320Z,44.78
2023-01-29T19:30:00.532Z,38.55
2023-01-29T19:32:29.195Z,39.10
2023-01-29T19:34:57.770Z,44.15
2023-01-29T19:37:25.330Z,44.92
2023-01-29T19:39:53.846Z,48.67
2023-01-29T19:42:22.299Z,46.75
2023-01-29T19:44:51.371Z,41.78
2023-01-29T19:47:18.405Z,59.47
2023-01-29T19:49:45.529Z,53.88
2023-01-29T19:52:51.191Z,66.70
2023-01-29T19:55:20.113Z,39.80
2023-01-29T19:57:49.394Z,35.50
2023-01-29T20:00:18.208Z,46.13
2023-01-29T20:02:45.449Z,43.38
2023-01-29T20:05:14.356Z,38.88
2023-01-29T20:07:43.385Z,33.20
2023-01-29T20:10:17.410Z,42.83
2023-01-29T20:12:45.789Z,50.85
2023-01-29T20:15:15.358Z,42.13
2023-01-29T20:17:43.866Z,36.38
2023-01-29T20:20:11.779Z,47.63
2023-01-29T20:22:38.780Z,49.08
2023-01-29T20:25:07.022Z,48.97
2023-01-29T20:27:34.382Z,30.60
2023-01-29T20:30:01.365Z,32.08
2023-01-29T20:32:30.332Z,33.78
2023-01-29T20:34:57.610Z,33.33
2023-01-29T20:37:24.651Z,37.28
2023-01-29T20:39:51.669Z,31.48
2023-01-29T20:42:20.007Z,31.15
2023-01-29T20:44:47.442Z,33.90
2023-01-29T20:47:14.531Z,29.30
2023-01-29T20:49:42.841Z,31.50
2023-01-29T20:52:10.808Z,27.70
2023-01-29T20:54:37.882Z,33.53
2023-01-29T20:57:05.148Z,32.35
2023-01-29T20:59:32.179Z,30.20
2023-01-29T21:01:59.301Z,29.63
2023-01-29T21:04:27.233Z,32.88
2023-01-29T21:06:55.516Z,30.67
2023-01-29T21:09:22.670Z,27.60
2023-01-29T21:11:49.668Z,27.20
2023-01-29T21:14:16.673Z,28.90
2023-01-29T21:16:43.805Z,25.02
2023-01-29T21:19:15.840Z,28.13
2023-01-29T21:21:42.914Z,32.35
2023-01-29T21:24:12.993Z,29.10
2023-01-29T21:26:40.151Z,29.70
2023-01-29T21:29:07.110Z,31.35
2023-01-29T21:31:34.070Z,33.83
2023-01-29T21:34:01.760Z,37.67
2023-01-29T21:36:28.659Z,40.15
2023-01-29T21:38:55.914Z,36.67
2023-01-29T21:41:44.295Z,35.85
2023-01-29T21:44:11.534Z,35.50
2023-01-29T21:46:38.534Z,36.53
2023-01-29T21:49:05.715Z,35.67
2023-01-29T21:51:32.683Z,39.00
2023-01-29T21:53:59.639Z,36.75
2023-01-29T21:56:27.896Z,36.92
2023-01-29T21:58:55.252Z,46.17
2023-01-29T22:01:36.518Z,44.17
2023-01-29T22:04:04.197Z,45.90
2023-01-29T22:06:31.141Z,41.90
2023-01-29T22:08:58.164Z,43.40
2023-01-29T22:11:25.178Z,50.95
2023-01-29T22:13:53.577Z,46.80
2023-01-29T22:16:20.529Z,34.72
2023-01-29T22:18:49.457Z,37.65
2023-01-29T22:21:16.336Z,40.55
2023-01-29T22:23:43.214Z,38.90
2023-01-29T22:26:11.040Z,40.05
2023-01-29T22:28:38.136Z,39.17
2023-01-29T22:31:06.576Z,40.22
2023-01-29T22:33:33.597Z,36.17
2023-01-29T22:36:01.115Z,38.10
2023-01-29T22:38:28.356Z,36.00
2023-01-29T22:40:56.901Z,36.58
2023-01-29T22:43:25.993Z,33.38
2023-01-29T22:45:53.046Z,31.52
2023-01-29T22:48:22.650Z,28.80
2023-01-29T22:51:09.322Z,30.98
2023-01-29T22:53:37.730Z,26.58
2023-01-29T22:56:06.043Z,29.40
2023-01-29T22:58:33.682Z,32.65
2023-01-29T23:01:00.685Z,30.33
2023-01-29T23:03:29.030Z,31.63
2023-01-29T23:05:56.080Z,32.80
2023-01-29T23:08:23.122Z,28.45
2023-01-29T23:10:50.099Z,31.83
2023-01-29T23:13:17.077Z,27.30
2023-01-29T23:15:44.054Z,28.67
2023-01-29T23:18:11.011Z,30.05
2023-01-29T23:20:39.306Z,29.08
2023-01-29T23:23:06.271Z,28.65
2023-01-29T23:25:51.923Z,28.75
2023-01-29T23:30:45.782Z,27.30
2023-01-29T23:33:12.967Z,32.00
2023-01-29T23:35:41.738Z,32.03
2023-01-29T23:38:08.698Z,28.60
2023-01-29T23:40:35.672Z,27.90
2023-01-29T23:43:02.624Z,30.42
2023-01-29T23:45:29.567Z,25.98
2023-01-29T23:47:56.582Z,26.17
2023-01-29T23:50:23.539Z,31.38
2023-01-29T23:52:51.836Z,27.67
2023-01-29T23:55:18.778Z,31.25
2023-01-29T23:57:45.736Z,30.90
